Atkinson, NE

6:41 PM CDT on August 17, 2019 (GMT -0500)
Lorenz Farms | | Change Station
Active Advisory: Severe Thunderstorm Watch

Elev 2014 ft 42.52 °N, 98.72 °W | Updated 12 minutes ago

Clear
Clear
83.9 °F
Feels Like 83 °F
N
7
Wind Variable Wind from SSE
Gusts 10.0 mph

Today
High -- | Low -- °F
--% Chance of Precip.
Yesterday
High -- | Low -- °F
Precip. -- in
Pressure 29.62 in
Visibility 10.0 miles
Clouds Clear
Heat Index 83 °F
Dew Point 54 °F
Humidity 37%
Rainfall 0.00 in
Snow Depth Not available.
6:44 AM 8:34 PM
Waning Gibbous, 95% visible
METAR KONL 172335Z AUTO 16012KT 10SM CLR 30/20 A2962 RMK AO2 LTG DSNT N AND NW T03000202
Pressure 29.62 in
Visibility 10.0 miles
Clouds Clear
Heat Index 83 °F
Dew Point 54 °F
Humidity 37%
Rainfall 0.00 in
Snow Depth Not available.
6:44 AM 8:34 PM
Waning Gibbous, 95% visible
METAR KONL 172335Z AUTO 16012KT 10SM CLR 30/20 A2962 RMK AO2 LTG DSNT N AND NW T03000202

Get Your Daily Forecast Email!

Thanks for signing up!

Be on the lookout for a verification email in your inbox.

You'll start receiving severe weather alerts in your inbox..

×

10-Day Weather Forecast

Almanac

Astronomy

Aug. 17, 2019 Rise Set
Actual Time
Civil Twilight
Nautical Twilight
Astronomical Twilight
Moon
Length of Visible Light
Length of Day
Tomorrow will be .
, % of the Moon is Illuminated

Today's Extremes

State Highs State Lows

Community

WunderPhotos

Category 6

Welcome to Category 6. This is the collective home for Weather Underground's featured writeups by Dr. Jeff Masters (right), Bob Henson (left), Chris Burt, and other regular contributors.

Nearby

Air Quality

  Air Quality AQ Index Pollutant
Not available.

Snow Depth

Station Depth Elevation

Earthquake Activity

City Distance Mag. Time & Date
Minimum magnitude displayed is 2.5.

Coastal Water Temperatures

Place Temperature

Stations

Nearby Weather Stations

Station Location Temp. Windchill Dew Point Humidity Wind Precip. Elev Updated Type
                   

Watches & Warnings

Severe Thunderstorm Watch
Issued: 6:20 PM CDT Aug. 17, 2019 – National Weather Service


The National Weather Service has issued Severe Thunderstorm Watch
593 in effect until 1 am CDT Sunday for the following areas

In Nebraska this watch includes 3 counties

In north central Nebraska

Boyd Holt Keya Paha

This includes the cities of Atkinson, Butte, Lynch, Oneill,
Spencer, and Springview.